Data for 11/08/2008

Time Sea-Level Adjusted Pressure Absolute Pressure Temperature Relative Humidity Dew Point   
(mb) (inHg) (mb) (inHg) (C) (F) (%) (C) (F)
00:05 1022 30.18 851 25.13 4.7 40.5 96 4.2 39.5
00:10 1022 30.18 851 25.13 4.8 40.6 96 4.2 39.5
00:15 1022 30.18 851 25.13 4.7 40.4 96 4.1 39.5
00:20 1022 30.18 851 25.13 4.6 40.3 96 4.1 39.3
00:25 1022 30.18 851 25.13 4.5 40.1 97 4 39.3
00:30 1022 30.18 851 25.13 4.6 40.2 97 4.1 39.4
00:35 1022 30.18 851 25.13 4.6 40.3 97 4.1 39.4
00:40 1022 30.18 851 25.13 4.6 40.3 97 4.2 39.5
00:45 1022 30.18 851 25.13 4.6 40.3 97 4.1 39.4
00:50 1022 30.18 851 25.13 4.6 40.3 97 4.1 39.4
00:55 1022 30.18 851 25.13 4.6 40.3 97 4.1 39.5
01:00 1022 30.18 851 25.13 4.7 40.5 97 4.2 39.6
01:05 1022 30.18 851 25.13 4.8 40.7 96 4.2 39.6
01:10 1022 30.18 851 25.13 4.8 40.7 96 4.2 39.6
01:15 1022 30.18 851 25.13 4.8 40.7 96 4.2 39.5
01:20 1022 30.18 851 25.13 4.8 40.6 96 4.2 39.5
01:25 1022 30.18 851 25.13 4.6 40.3 96 4 39.2
01:30 1022 30.18 851 25.13 4.6 40.3 96 4 39.2
01:35 1022 30.18 851 25.13 4.6 40.3 96 4 39.3
01:40 1022 30.18 851 25.13 4.6 40.3 96 4.1 39.3
01:45 1021 30.15 851 25.13 4.6 40.3 96 4.1 39.3
01:50 1021 30.15 851 25.13 4.5 40.1 96 4 39.2
01:55 1021 30.15 851 25.13 4.4 39.9 97 4 39.2
02:00 1022 30.18 851 25.13 4.5 40.1 97 4 39.3
02:05 1022 30.18 851 25.13 4.5 40 97 4 39.3
02:10 1022 30.18 851 25.13 4.4 40 97 4.1 39.3
02:15 1022 30.18 851 25.13 4.4 39.9 97 4 39.3
02:20 1021 30.15 851 25.13 4.4 40 97 4.1 39.3
02:25 1021 30.15 851 25.13 4.4 40 97 4.1 39.3
02:30 1021 30.15 851 25.13 4.5 40.1 97 4.1 39.4
02:35 1021 30.15 851 25.13 4.6 40.2 97 4.2 39.5
02:40 1021 30.15 851 25.13 4.7 40.4 97 4.3 39.7
02:45 1021 30.15 851 25.13 4.8 40.6 97 4.4 39.9
02:50 1021 30.15 850 25.1 4.9 40.7 97 4.3 39.8
02:55 1021 30.15 850 25.1 4.9 40.8 96 4.3 39.7
03:00 1021 30.15 850 25.1 4.8 40.7 96 4.2 39.6
03:05 1021 30.15 850 25.1 4.6 40.3 96 4.1 39.4
03:10 1021 30.15 850 25.1 4.5 40.2 97 4.1 39.4
03:15 1021 30.15 850 25.1 4.6 40.3 97 4.2 39.5
03:20 1021 30.15 850 25.1 4.7 40.5 97 4.2 39.6
03:25 1021 30.15 850 25.1 4.8 40.7 96 4.3 39.7
03:30 1021 30.15 850 25.1 4.9 40.9 96 4.3 39.8
03:35 1021 30.15 850 25.1 5 41 95 4.3 39.7
03:40 1021 30.15 850 25.1 5 41 95 4.2 39.6
03:45 1021 30.15 850 25.1 4.9 40.8 95 4.2 39.5
03:50 1021 30.15 850 25.1 4.8 40.6 96 4.1 39.4
03:55 1021 30.15 850 25.1 4.7 40.4 96 4 39.3
04:00 1021 30.15 850 25.1 4.5 40.1 96 4 39.2
04:05 1021 30.15 850 25.1 4.5 40.1 96 4 39.1
04:10 1021 30.15 850 25.1 4.4 39.9 97 4 39.1
04:15 1021 30.15 850 25.1 4.4 40 97 4 39.2
04:20 1021 30.15 850 25.1 4.5 40.1 97 4 39.2
04:25 1021 30.15 850 25.1 4.5 40.2 96 3.9 39
04:30 1021 30.15 850 25.1 4.6 40.2 96 4 39.1
04:35 1021 30.15 850 25.1 4.5 40.1 96 3.9 39.1
04:40 1021 30.15 850 25.1 4.5 40.1 96 3.9 39
04:45 1020 30.12 850 25.1 4.5 40.1 96 3.9 39
04:50 1020 30.12 850 25.1 4.6 40.2 95 3.9 39
04:55 1020 30.12 850 25.1 4.5 40.2 96 3.9 39
05:00 1020 30.12 850 25.1 4.5 40.1 96 3.9 39
05:05 1020 30.12 849 25.07 4.5 40.1 96 3.9 39.1
05:10 1020 30.12 850 25.1 4.5 40.2 96 3.9 39.1
05:15 1020 30.12 849 25.07 4.6 40.2 96 4 39.1
05:20 1020 30.12 849 25.07 4.4 39.9 96 3.9 39
05:25 1020 30.12 849 25.07 4.3 39.8 97 3.8 38.9
05:30 1020 30.12 849 25.07 4.3 39.8 96 3.8 38.9
05:35 1020 30.12 849 25.07 4.4 39.8 97 3.8 38.9
05:40 1020 30.12 849 25.07 4.4 39.9 96 3.8 38.9
05:45 1020 30.12 849 25.07 4.5 40.2 95 3.8 38.8
05:50 1020 30.12 849 25.07 4.6 40.3 94 3.7 38.7
05:55 1020 30.12 849 25.07 4.6 40.3 94 3.7 38.7
06:00 1020 30.12 849 25.07 4.6 40.3 93 3.6 38.6
06:05 1020 30.12 849 25.07 4.6 40.3 93 3.6 38.5
06:10 1020 30.12 849 25.07 4.6 40.4 93 3.6 38.5
06:15 1020 30.12 849 25.07 4.7 40.5 93 3.6 38.5
06:20 1020 30.12 849 25.07 4.8 40.6 92 3.6 38.5
06:25 1020 30.12 849 25.07 4.8 40.6 92 3.7 38.6
06:30 1020 30.12 849 25.07 4.8 40.6 92 3.6 38.4
06:35 1020 30.12 849 25.07 4.8 40.7 91 3.5 38.2
06:40 1020 30.12 849 25.07 4.9 40.8 91 3.5 38.3
06:45 1020 30.12 849 25.07 4.9 40.7 91 3.6 38.4
06:50 1020 30.12 849 25.07 4.8 40.7 91 3.6 38.4
06:55 1020 30.12 849 25.07 4.8 40.7 92 3.6 38.6
07:00 1020 30.12 849 25.07 4.7 40.5 93 3.7 38.6
07:05 1020 30.12 849 25.07 4.6 40.3 93 3.6 38.4
07:10 1020 30.12 849 25.07 4.6 40.3 93 3.6 38.5
07:15 1020 30.12 849 25.07 4.6 40.3 93 3.5 38.4
07:20 1020 30.12 849 25.07 4.6 40.3 93 3.5 38.4
07:25 1020 30.12 849 25.07 4.5 40.1 93 3.5 38.3
07:30 1020 30.12 849 25.07 4.5 40.1 93 3.5 38.4
07:35 1020 30.12 849 25.07 4.5 40 94 3.5 38.4
07:40 1020 30.12 849 25.07 4.4 39.9 92 3.3 37.9
07:45 1020 30.12 849 25.07 4.4 40 92 3.3 37.9
07:50 1020 30.12 849 25.07 4.5 40.1 91 3.2 37.7
07:55 1020 30.12 849 25.07 4.6 40.3 91 3.2 37.8
08:00 1020 30.12 849 25.07 4.6 40.2 91 3.3 37.9
08:05 1020 30.12 849 25.07 4.5 40.1 92 3.2 37.8
08:10 1020 30.12 849 25.07 4.5 40.1 92 3.2 37.8
08:15 1020 30.12 849 25.07 4.6 40.3 90 3.2 37.7
08:20 1020 30.12 849 25.07 4.8 40.7 89 3.2 37.7
08:25 1019 30.09 849 25.07 5 41 89 3.4 38.1
08:30 1019 30.09 849 25.07 5 41 90 3.4 38.2
08:35 1019 30.09 849 25.07 5 41.1 88 3.2 37.8
08:40 1019 30.09 849 25.07 5.1 41.2 89 3.5 38.2
08:45 1019 30.09 849 25.07 5.1 41.2 90 3.6 38.5
08:50 1019 30.09 848 25.04 5.2 41.3 89 3.5 38.4
08:55 1019 30.09 848 25.04 5.3 41.5 88 3.5 38.2
09:00 1019 30.09 848 25.04 5.5 41.9 88 3.7 38.6
09:05 1019 30.09 848 25.04 6.2 43.2 85 3.9 39.1
09:10 1019 30.09 848 25.04 6.7 44.1 84 4.1 39.4
09:15 1019 30.09 848 25.04 7.1 44.7 83 4.4 39.9
09:20 1019 30.09 848 25.04 7.4 45.4 82 4.6 40.3
09:25 1019 30.09 848 25.04 7.6 45.6 82 4.8 40.6
09:30 1019 30.09 848 25.04 7.6 45.7 84 5 41
09:35 1019 30.09 848 25.04 7.6 45.7 79 4.3 39.7
09:40 1019 30.09 848 25.04 7.7 45.9 81 4.6 40.4
09:45 1019 30.09 848 25.04 7.6 45.6 82 4.7 40.4
09:50 1019 30.09 848 25.04 7.4 45.4 83 4.7 40.5
09:55 1019 30.09 848 25.04 7.7 45.8 80 4.5 40.1
10:00 1019 30.09 848 25.04 8 46.3 80 4.7 40.5
10:05 1019 30.09 848 25.04 8 46.3 82 5.1 41.2
10:10 1019 30.09 848 25.04 8.1 46.7 77 4.4 40
10:15 1019 30.09 848 25.04 8 46.5 77 4.3 39.8
10:20 1019 30.09 848 25.04 8.2 46.7 77 4.4 40
10:25 1019 30.09 848 25.04 8.1 46.5 78 4.5 40.1
10:30 1019 30.09 848 25.04 8.2 46.7 79 4.8 40.7
10:35 1019 30.09 848 25.04 8.3 46.9 76 4.4 40
10:40 1019 30.09 848 25.04 8.2 46.8 78 4.6 40.3
10:45 1019 30.09 848 25.04 8.1 46.5 80 4.8 40.6
10:50 1019 30.09 848 25.04 8.2 46.7 79 4.7 40.5
10:55 1019 30.09 848 25.04 8.4 47.1 79 4.9 40.8
11:00 1018 30.06 848 25.04 8.6 47.6 78 5 41
11:05 1018 30.06 848 25.04 8.8 47.8 77 5.1 41.1
11:10 1018 30.06 848 25.04 9 48.3 75 4.9 40.9
11:15 1018 30.06 848 25.04 8.9 48.1 76 5 41
11:20 1018 30.06 848 25.04 8.8 47.8 75 4.7 40.4
11:25 1018 30.06 847 25.01 9.1 48.4 74 4.8 40.6
11:30 1018 30.06 847 25.01 9.4 48.9 71 4.3 39.8
11:35 1018 30.06 847 25.01 9.1 48.4 72 4.3 39.8
11:40 1018 30.06 847 25.01 9 48.1 75 4.8 40.6
11:45 1018 30.06 847 25.01 8.9 48.1 75 4.8 40.6
11:50 1018 30.06 847 25.01 8.7 47.7 75 4.6 40.4
11:55 1018 30.06 847 25.01 8.8 47.9 77 5.1 41.1
12:00 1018 30.06 847 25.01 9 48.2 80 5.8 42.4
12:05 1018 30.06 847 25.01 8.8 47.8 81 5.8 42.4
12:10 1018 30.06 847 25.01 8.5 47.3 86 6.2 43.2
12:15 1018 30.06 847 25.01 8.7 47.6 83 5.9 42.6
12:20 1018 30.06 847 25.01 9 48.2 80 5.7 42.2
12:25 1018 30.06 847 25.01 9 48.3 80 5.8 42.5
12:30 1018 30.06 847 25.01 9.2 48.6 78 5.6 42
12:35 1017 30.03 847 25.01 9 48.1 79 5.6 42.1
12:40 1017 30.03 847 25.01 8.8 47.8 81 5.7 42.3
12:45 1017 30.03 847 25.01 8.8 47.8 81 5.7 42.3
12:50 1017 30.03 847 25.01 9 48.2 79 5.6 42.1
12:55 1017 30.03 846 24.98 9.6 49.3 76 5.5 41.9
13:00 1017 30.03 846 24.98 9.6 49.3 77 5.8 42.4
13:05 1017 30.03 846 24.98 9.9 49.7 72 5 41
13:10 1017 30.03 846 24.98 9.6 49.4 76 5.7 42.2
13:15 1017 30.03 846 24.98 9.6 49.3 75 5.4 41.6
13:20 1017 30.03 846 24.98 9.7 49.5 76 5.8 42.4
13:25 1017 30.03 846 24.98 10.3 50.5 70 5.1 41.2
13:30 1017 30.03 846 24.98 10.1 50.1 73 5.5 41.9
13:35 1017 30.03 846 24.98 10.1 50.1 71 5 41.1
13:40 1016 30 846 24.98 10.4 50.7 70 5.1 41.3
13:45 1016 30 846 24.98 10.6 51.1 73 5.9 42.7
13:50 1016 30 846 24.98 10.9 51.5 69 5.5 41.8
13:55 1016 30 845 24.95 10.8 51.5 70 5.6 42
14:00 1016 30 845 24.95 10.8 51.4 71 5.8 42.4
14:05 1016 30 845 24.95 10.6 51.1 69 5.3 41.5
14:10 1016 30 845 24.95 10.8 51.5 68 5.3 41.5
14:15 1016 30 845 24.95 11.1 52 66 5.1 41.2
14:20 1016 30 845 24.95 11 51.8 64 4.5 40.1
14:25 1016 30 845 24.95 11.6 52.9 62 4.6 40.3
14:30 1016 30 845 24.95 11.9 53.5 63 5.3 41.5
14:35 1016 30 845 24.95 12 53.6 61 4.8 40.6
14:40 1016 30 845 24.95 11.9 53.4 64 5.3 41.6
14:45 1016 30 845 24.95 11.5 52.8 64 5 41
14:50 1016 30 845 24.95 11.5 52.8 64 5 41.1
14:55 1016 30 845 24.95 11.5 52.6 65 5.2 41.3
15:00 1016 30 845 24.95 11.2 52.2 64 4.7 40.4
15:05 1016 30 845 24.95 11 51.8 65 4.8 40.6
15:10 1016 30 845 24.95 10.8 51.5 66 4.8 40.6
15:15 1016 30 845 24.95 10.9 51.6 66 4.8 40.6
15:20 1015 29.97 845 24.95 11.2 52.1 65 4.8 40.7
15:25 1015 29.97 845 24.95 11.4 52.6 64 5 40.9
15:30 1015 29.97 845 24.95 11.6 52.8 65 5.2 41.4
15:35 1015 29.97 845 24.95 11.3 52.3 66 5.3 41.5
15:40 1015 29.97 845 24.95 11 51.7 72 6.1 43
15:45 1015 29.97 845 24.95 10.9 51.6 72 6 42.8
15:50 1015 29.97 845 24.95 11 51.8 71 5.9 42.7
15:55 1015 29.97 845 24.95 11.1 52 70 5.9 42.5
16:00 1015 29.97 845 24.95 10.9 51.6 71 5.9 42.5
16:05 1015 29.97 845 24.95 10.6 51.2 73 6 42.8
16:10 1015 29.97 844 24.92 10.4 50.8 74 5.9 42.7
16:15 1015 29.97 844 24.92 10.4 50.8 75 6.1 43.1
16:20 1015 29.97 844 24.92 10.3 50.5 73 5.7 42.3
16:25 1015 29.97 844 24.92 10.1 50.1 73 5.5 41.9
16:30 1015 29.97 844 24.92 9.8 49.6 74 5.5 41.9
16:35 1015 29.97 844 24.92 9.7 49.4 75 5.5 41.8
16:40 1015 29.97 844 24.92 9.6 49.2 76 5.6 42
16:45 1015 29.97 844 24.92 9.5 49.1 76 5.5 41.9
16:50 1015 29.97 844 24.92 9.6 49.2 76 5.7 42.2
16:55 1015 29.97 844 24.92 9.7 49.4 76 5.6 42.2
17:00 1015 29.97 844 24.92 9.6 49.3 76 5.6 42
17:05 1015 29.97 844 24.92 9.4 49 77 5.6 42.1
17:10 1015 29.97 844 24.92 9.4 48.9 77 5.6 42
17:15 1015 29.97 844 24.92 9.4 49 77 5.6 42.2
17:20 1015 29.97 844 24.92 9.4 48.8 78 5.8 42.4
17:25 1015 29.97 844 24.92 9 48.3 80 5.8 42.4
17:30 1015 29.97 844 24.92 8.9 47.9 80 5.7 42.2
17:35 1015 29.97 844 24.92 8.8 47.9 80 5.5 42
17:40 1015 29.97 844 24.92 8.9 48 81 5.8 42.5
17:45 1015 29.97 844 24.92 8.9 48 81 5.8 42.4
17:50 1015 29.97 844 24.92 9 48.2 81 5.9 42.6
17:55 1015 29.97 844 24.92 8.9 48 81 5.8 42.5
18:00 1015 29.97 844 24.92 8.7 47.6 82 5.8 42.5
18:05 1015 29.97 844 24.92 8.5 47.3 83 5.7 42.2
18:10 1015 29.97 844 24.92 8.5 47.3 83 5.7 42.3
18:15 1015 29.97 844 24.92 8.5 47.2 83 5.7 42.3
18:20 1015 29.97 844 24.92 8.5 47.4 80 5.4 41.7
18:25 1015 29.97 844 24.92 8.7 47.6 81 5.6 42.2
18:30 1015 29.97 844 24.92 8.7 47.6 81 5.7 42.2
18:35 1015 29.97 844 24.92 8.6 47.5 82 5.8 42.4
18:40 1015 29.97 844 24.92 8.6 47.4 82 5.7 42.2
18:45 1015 29.97 844 24.92 8.5 47.4 84 6 42.8
18:50 1015 29.97 844 24.92 8.2 46.8 84 5.7 42.3
18:55 1015 29.97 844 24.92 8 46.5 86 5.8 42.4
19:00 1015 29.97 844 24.92 7.9 46.1 86 5.6 42.1
19:05 1015 29.97 844 24.92 7.9 46.3 84 5.3 41.6
19:10 1015 29.97 844 24.92 7.9 46.2 82 5 41
19:15 1014 29.94 844 24.92 7.8 46.1 83 5.1 41.2
19:20 1014 29.94 844 24.92 7.8 46 81 4.7 40.5
19:25 1014 29.94 844 24.92 7.7 45.9 79 4.3 39.8
19:30 1014 29.94 844 24.92 7.6 45.7 79 4.3 39.8
19:35 1014 29.94 843 24.89 7.6 45.6 78 3.9 39
19:40 1014 29.94 843 24.89 7.6 45.6 76 3.6 38.4
19:45 1014 29.94 843 24.89 7.8 46 74 3.5 38.3
19:50 1014 29.94 843 24.89 7.7 45.8 76 3.8 38.8
19:55 1014 29.94 843 24.89 7.5 45.5 76 3.5 38.4
20:00 1014 29.94 843 24.89 7.8 46 73 3.3 37.9
20:05 1014 29.94 843 24.89 8 46.3 73 3.5 38.2
20:10 1014 29.94 843 24.89 7.7 45.9 79 4.4 39.9
20:15 1014 29.94 843 24.89 7.5 45.5 80 4.2 39.6
20:20 1014 29.94 843 24.89 7.4 45.3 79 4 39.2
20:25 1014 29.94 843 24.89 7.2 45 81 4.1 39.4
20:30 1014 29.94 843 24.89 7.1 44.8 79 3.7 38.7
20:35 1014 29.94 843 24.89 7.2 45 81 4.3 39.7
20:40 1014 29.94 843 24.89 7.1 44.8 82 4.3 39.8
20:45 1014 29.94 843 24.89 6.9 44.4 84 4.4 39.8
20:50 1013 29.91 843 24.89 6.7 44.1 84 4.3 39.7
20:55 1013 29.91 843 24.89 6.7 44.1 85 4.3 39.8
21:00 1013 29.91 843 24.89 6.7 44.1 85 4.3 39.8
21:05 1013 29.91 842 24.86 6.7 44 85 4.3 39.7
21:10 1013 29.91 842 24.86 6.7 44 84 4.2 39.5
21:15 1013 29.91 842 24.86 6.6 43.9 85 4.3 39.7
21:20 1013 29.91 842 24.86 6.2 43.2 85 3.9 39
21:25 1013 29.91 842 24.86 6.2 43.2 84 3.8 38.8
21:30 1013 29.91 842 24.86 6.1 43 83 3.4 38.2
21:35 1013 29.91 842 24.86 6 42.8 83 3.3 37.9
21:40 1013 29.91 842 24.86 5.9 42.7 82 3 37.5
21:45 1013 29.91 842 24.86 6.1 43 79 2.8 37.1
21:50 1013 29.91 842 24.86 6.2 43.2 79 2.9 37.2
21:55 1013 29.91 842 24.86 6.2 43.2 79 2.8 37.1
22:00 1013 29.91 842 24.86 6.2 43.1 79 2.9 37.2
22:05 1013 29.91 842 24.86 6 42.8 79 2.7 36.9
22:10 1013 29.91 842 24.86 5.8 42.5 81 2.8 37.1
22:15 1013 29.91 842 24.86 5.5 42 81 2.5 36.6
22:20 1013 29.91 842 24.86 5.7 42.2 80 2.5 36.5
22:25 1013 29.91 842 24.86 5.6 42.1 81 2.6 36.7
22:30 1013 29.91 842 24.86 5.5 41.9 81 2.5 36.5
22:35 1013 29.91 842 24.86 5.6 42.1 79 2.3 36.2
22:40 1013 29.91 842 24.86 5.8 42.5 78 2.3 36.2
22:45 1013 29.91 842 24.86 5.9 42.7 78 2.3 36.2
22:50 1013 29.91 842 24.86 6 42.9 77 2.2 36
22:55 1012 29.88 842 24.86 6.1 43 77 2.4 36.2
23:00 1012 29.88 842 24.86 5.9 42.7 78 2.3 36.2
23:05 1012 29.88 842 24.86 5.8 42.4 78 2.2 36
23:10 1012 29.88 842 24.86 5.6 42.1 79 2.2 36
23:15 1012 29.88 842 24.86 5.4 41.8 80 2.2 35.9
23:20 1012 29.88 841 24.83 5.4 41.8 79 2 35.6
23:25 1012 29.88 841 24.83 5.6 42 79 2.1 35.9
23:30 1012 29.88 841 24.83 5.7 42.2 78 2.2 35.9
23:35 1012 29.88 841 24.83 5.7 42.3 78 2.1 35.9
23:40 1012 29.88 841 24.83 5.8 42.5 77 2.2 35.9
23:45 1012 29.88 841 24.83 5.9 42.6 77 2.1 35.7
23:50 1012 29.88 841 24.83 6 42.8 76 2.1 35.8
23:55 1012 29.88 841 24.83 6.1 43 75 2 35.7
24:00 1012 29.88 841 24.83 6.1 43.1 76 2.2 35.9